Waterville, New York
Current Conditions -  °F | °C
As of 3:24 AM on Thursday 27 Nov 2014 (Local Time) from KRME Reporting Station
Light Snow Light Snow  
Wind Chill: 19°   Ceiling: 1800
Heat Index: 27°   Visibility: 6mi
Dew Point: 26°   Wind: 7mph
Humidity: 96%   Direction: 300°WNW
Pressure: 29.98"   Gusts: NA
Location:  42.93°N, 75.38°W
Report Text: KRME 270824Z AUTO 30006KT 6SM -SN BR SCT007 OVC018 M03/M03 A2998 RMK AO2 UPE0759SNB0756E0758B0759 P0000 T10281033
Loading
Personal Weather Stations






























Interactive Weather Map New forecast layout! Learn more

10-Day Weather Forecast

Advertisements
Track Severe Weather on mobile